Terminal Aerodrome Forecast
Issued by NWS

Home | Current Version | Previous Version | Text Only | Print | Product List | Glossary On
Versions: 1 2 3 4 5 6 7 8 9 10 11 12 13 14 15 16 17 18
427
FTUS43 KGRR 222336
TAFMKG
TAF
KMKG 222336Z 2300/2324 27008KT P6SM OVC005
     FM230100 VRB03KT P6SM SCT025 BKN150
     FM230600 12002KT 4SM BR OVC025
     FM231100 16002KT 4SM BR VCSH OVC007
     FM231500 29008KT P6SM BKN015
     FM231900 31012G22KT P6SM FEW250=

USA.gov is the U.S. government's official web portal to all federal, state and local government web resources and services.